createdAt,value
2019-03-26T00:02:07.650Z,45.23
2019-03-26T00:04:36.786Z,56.08
2019-03-26T00:07:09.248Z,42.10
2019-03-26T00:09:38.685Z,44.73
2019-03-26T00:12:11.391Z,41.02
2019-03-26T00:14:44.163Z,43.13
2019-03-26T00:17:13.517Z,41.57
2019-03-26T00:19:42.661Z,45.33
2019-03-26T00:22:11.782Z,44.13
2019-03-26T00:24:44.715Z,41.85
2019-03-26T00:27:17.529Z,44.90
2019-03-26T00:29:46.976Z,45.98
2019-03-26T00:32:16.779Z,44.40
2019-03-26T00:34:46.244Z,43.80
2019-03-26T00:37:15.365Z,38.50
2019-03-26T00:39:46.415Z,38.58
2019-03-26T00:42:16.251Z,35.33
2019-03-26T00:44:45.388Z,39.80
2019-03-26T00:47:14.516Z,36.77
2019-03-26T00:49:46.745Z,53.35
2019-03-26T00:52:15.853Z,39.65
2019-03-26T00:54:47.762Z,32.73
2019-03-26T00:57:18.579Z,30.40
2019-03-26T00:59:47.709Z,31.10
2019-03-26T01:02:17.574Z,35.43
2019-03-26T01:04:47.458Z,40.55
2019-03-26T01:07:16.866Z,47.85
2019-03-26T01:09:49.032Z,45.70
2019-03-26T01:12:18.437Z,42.60
2019-03-26T01:14:47.923Z,44.98
2019-03-26T01:17:17.043Z,41.02
2019-03-26T01:19:47.146Z,41.73
2019-03-26T01:22:16.730Z,44.98
2019-03-26T01:24:45.850Z,43.20
2019-03-26T01:27:18.089Z,53.65
2019-03-26T01:29:50.779Z,44.73
2019-03-26T01:32:20.164Z,50.07
2019-03-26T01:34:50.117Z,56.25
2019-03-26T01:37:22.809Z,49.38
2019-03-26T01:39:55.247Z,57.50
2019-03-26T01:42:27.734Z,63.02
2019-03-26T01:44:59.194Z,66.10
2019-03-26T01:47:28.975Z,44.13
2019-03-26T01:49:58.825Z,38.17
2019-03-26T01:52:28.229Z,38.50
2019-03-26T01:54:58.938Z,34.03
2019-03-26T01:57:31.436Z,29.55
2019-03-26T02:00:06.291Z,30.05
2019-03-26T02:02:35.404Z,28.27
2019-03-26T02:05:05.635Z,29.15
2019-03-26T02:07:35.093Z,29.42
2019-03-26T02:10:06.895Z,36.58
2019-03-26T02:12:39.295Z,30.25
2019-03-26T02:15:09.825Z,28.55
2019-03-26T02:17:39.100Z,32.78
2019-03-26T02:20:08.223Z,29.42
2019-03-26T02:22:42.592Z,34.73
2019-03-26T02:25:12.057Z,30.82
2019-03-26T02:27:44.247Z,34.30
2019-03-26T02:30:14.135Z,27.13
2019-03-26T02:32:43.665Z,27.13
2019-03-26T02:35:18.101Z,33.98
2019-03-26T02:37:46.567Z,24.10
2019-03-26T02:40:18.989Z,25.50
2019-03-26T02:42:48.186Z,30.27
2019-03-26T02:45:20.247Z,19.40
2019-03-26T02:47:49.970Z,18.80
2019-03-26T02:50:24.544Z,26.12
2019-03-26T02:52:56.732Z,29.35
2019-03-26T02:55:26.516Z,29.00
2019-03-26T02:57:57.820Z,18.65
2019-03-26T03:00:26.965Z,20.00
2019-03-26T03:02:56.839Z,20.23
2019-03-26T03:05:35.253Z,23.20
2019-03-26T03:07:57.116Z,26.23
2019-03-26T03:10:29.318Z,21.02
2019-03-26T03:12:58.485Z,14.73
2019-03-26T03:15:30.724Z,24.10
2019-03-26T03:17:59.917Z,21.37
2019-03-26T03:20:29.038Z,15.72
2019-03-26T03:23:01.721Z,17.25
2019-03-26T03:25:36.141Z,19.97
2019-03-26T03:28:05.262Z,22.20
2019-03-26T03:30:38.067Z,16.57
2019-03-26T03:33:13.513Z,17.13
2019-03-26T03:35:52.022Z,18.85
2019-03-26T03:38:14.328Z,23.40
2019-03-26T03:40:47.573Z,14.07
2019-03-26T03:43:18.663Z,14.95
2019-03-26T03:45:52.070Z,15.83
2019-03-26T03:48:22.052Z,17.60
2019-03-26T03:50:51.191Z,17.35
2019-03-26T03:53:26.695Z,19.07
2019-03-26T03:55:56.879Z,24.15
2019-03-26T03:58:26.018Z,17.15
2019-03-26T04:00:55.544Z,13.70
2019-03-26T04:03:25.048Z,14.35
2019-03-26T04:06:08.119Z,15.48
2019-03-26T04:08:25.007Z,17.65
2019-03-26T04:10:54.109Z,15.13
2019-03-26T04:13:23.526Z,11.63
2019-03-26T04:15:53.556Z,16.90
2019-03-26T04:18:26.167Z,8.60
2019-03-26T04:20:55.661Z,18.52
2019-03-26T04:23:28.044Z,15.88
2019-03-26T04:25:59.923Z,17.25
2019-03-26T04:28:29.020Z,16.20
2019-03-26T04:31:01.608Z,17.77
2019-03-26T04:33:36.039Z,13.85
2019-03-26T04:36:05.656Z,17.37
2019-03-26T04:38:35.252Z,17.52
2019-03-26T04:41:07.097Z,14.07
2019-03-26T04:43:36.615Z,18.12
2019-03-26T04:46:11.951Z,20.00
2019-03-26T04:48:45.094Z,13.38
2019-03-26T04:51:20.802Z,19.37
2019-03-26T04:53:50.289Z,20.30
2019-03-26T04:56:19.445Z,23.55
2019-03-26T04:58:48.808Z,19.35
2019-03-26T05:01:17.967Z,23.38
2019-03-26T05:03:51.013Z,16.67
2019-03-26T05:06:21.467Z,21.70
2019-03-26T05:08:51.335Z,12.93
2019-03-26T05:11:25.507Z,16.50
2019-03-26T05:13:55.259Z,19.17
2019-03-26T05:16:26.607Z,18.25
2019-03-26T05:18:56.373Z,20.55
2019-03-26T05:21:25.521Z,19.25
2019-03-26T05:23:54.887Z,25.55
2019-03-26T05:26:27.614Z,20.00
2019-03-26T05:28:57.674Z,20.73
2019-03-26T05:31:27.130Z,18.55
2019-03-26T05:33:59.587Z,20.90
2019-03-26T05:36:32.449Z,21.35
2019-03-26T05:39:02.289Z,19.48
2019-03-26T05:41:34.829Z,20.27
2019-03-26T05:44:04.362Z,19.35
2019-03-26T05:46:33.486Z,21.20
2019-03-26T05:49:02.903Z,16.73
2019-03-26T05:51:36.002Z,18.05
2019-03-26T05:54:05.586Z,21.55
2019-03-26T05:56:34.735Z,22.10
2019-03-26T05:59:10.111Z,26.12
2019-03-26T06:01:39.452Z,22.45
2019-03-26T06:04:20.917Z,26.97
2019-03-26T06:07:03.919Z,22.32
2019-03-26T06:09:22.125Z,21.45
2019-03-26T06:11:54.857Z,20.77
2019-03-26T06:14:30.494Z,27.67
2019-03-26T06:16:59.623Z,22.87
2019-03-26T06:19:29.049Z,21.65
2019-03-26T06:21:59.768Z,21.77
2019-03-26T06:24:31.287Z,23.52
2019-03-26T06:27:04.081Z,24.92
2019-03-26T06:29:33.627Z,18.73
2019-03-26T06:32:03.397Z,11.85
2019-03-26T06:34:35.637Z,23.22
2019-03-26T06:37:17.138Z,24.60
2019-03-26T06:39:36.907Z,14.73
2019-03-26T06:42:06.215Z,16.30
2019-03-26T06:44:38.877Z,16.27
2019-03-26T06:47:11.159Z,15.83
2019-03-26T06:49:40.279Z,19.80
2019-03-26T06:52:09.389Z,21.27
2019-03-26T06:54:38.692Z,21.87
2019-03-26T06:57:11.421Z,17.57
2019-03-26T06:59:40.813Z,22.63
2019-03-26T07:02:10.279Z,21.77
2019-03-26T07:04:51.527Z,18.20
2019-03-26T07:07:31.536Z,21.93
2019-03-26T07:09:53.340Z,18.00
2019-03-26T07:12:22.477Z,17.92
2019-03-26T07:14:54.719Z,15.20
2019-03-26T07:17:23.876Z,14.73
2019-03-26T07:19:53.005Z,20.62
2019-03-26T07:22:22.808Z,16.07
2019-03-26T07:24:51.915Z,16.62
2019-03-26T07:27:21.834Z,18.95
2019-03-26T07:29:54.928Z,14.45
2019-03-26T07:32:27.446Z,13.58
2019-03-26T07:34:57.248Z,19.48
2019-03-26T07:37:26.680Z,20.90
2019-03-26T07:40:00.227Z,17.92
2019-03-26T07:45:00.837Z,20.70
2019-03-26T07:47:29.951Z,22.32
2019-03-26T07:49:59.822Z,17.45
2019-03-26T07:52:32.473Z,18.50
2019-03-26T07:55:01.848Z,16.02
2019-03-26T07:57:31.290Z,15.78
2019-03-26T08:00:01.041Z,16.93
2019-03-26T08:02:33.046Z,18.95
2019-03-26T08:05:05.292Z,16.87
2019-03-26T08:07:34.401Z,15.00
2019-03-26T08:10:04.204Z,15.53
2019-03-26T08:12:34.068Z,25.25
2019-03-26T08:15:09.701Z,19.42
2019-03-26T08:17:45.204Z,14.45
2019-03-26T08:20:13.404Z,17.67
2019-03-26T08:22:42.513Z,15.63
2019-03-26T08:25:13.847Z,14.95
2019-03-26T08:27:42.958Z,17.45
2019-03-26T08:30:13.663Z,12.00
2019-03-26T08:32:42.760Z,15.15
2019-03-26T08:35:11.881Z,19.27
2019-03-26T08:37:41.358Z,17.25
2019-03-26T08:40:10.512Z,14.98
2019-03-26T08:42:39.629Z,14.10
2019-03-26T08:45:12.169Z,18.77
2019-03-26T08:47:41.586Z,17.48
2019-03-26T08:50:14.226Z,18.70
2019-03-26T08:52:43.367Z,14.20
2019-03-26T08:55:15.944Z,17.52
2019-03-26T08:57:45.061Z,11.40
2019-03-26T09:00:20.034Z,16.02
2019-03-26T09:02:49.143Z,17.45
2019-03-26T09:05:19.033Z,12.13
2019-03-26T09:07:51.525Z,14.80
2019-03-26T09:10:24.316Z,8.38
2019-03-26T09:12:53.418Z,11.73
2019-03-26T09:15:23.633Z,13.08
2019-03-26T09:17:53.042Z,13.25
2019-03-26T09:20:22.146Z,12.88
2019-03-26T09:22:51.958Z,10.32
2019-03-26T09:25:24.335Z,17.10
2019-03-26T09:27:53.430Z,13.93
2019-03-26T09:30:25.867Z,11.48
2019-03-26T09:32:55.985Z,9.00
2019-03-26T09:35:25.325Z,14.33
2019-03-26T09:37:56.387Z,11.40
2019-03-26T09:40:28.968Z,13.38
2019-03-26T09:43:01.417Z,17.67
2019-03-26T09:45:30.539Z,14.43
2019-03-26T09:47:59.657Z,15.58
2019-03-26T09:50:39.155Z,13.62
2019-03-26T09:53:15.682Z,11.40
2019-03-26T09:55:45.103Z,12.37
2019-03-26T09:58:17.164Z,12.05
2019-03-26T10:00:49.600Z,16.48
2019-03-26T10:03:18.851Z,16.00
2019-03-26T10:05:47.956Z,14.35
2019-03-26T10:08:17.980Z,14.38
2019-03-26T10:10:47.197Z,20.25
2019-03-26T10:13:16.459Z,17.15
2019-03-26T10:15:46.295Z,14.40
2019-03-26T10:18:15.414Z,10.18
2019-03-26T10:20:44.556Z,16.87
2019-03-26T10:23:14.026Z,15.13
2019-03-26T10:25:46.461Z,18.05
2019-03-26T10:28:15.591Z,18.23
2019-03-26T10:30:45.033Z,13.68
2019-03-26T10:33:14.158Z,18.10
2019-03-26T10:35:46.628Z,18.90
2019-03-26T10:38:16.126Z,13.60
2019-03-26T10:40:45.237Z,16.17
2019-03-26T10:43:17.835Z,14.45
2019-03-26T10:45:46.963Z,12.55
2019-03-26T10:48:16.396Z,13.48
2019-03-26T10:50:45.882Z,9.10
2019-03-26T10:53:15.191Z,9.33
2019-03-26T10:55:44.638Z,19.00
2019-03-26T10:58:14.094Z,9.40
2019-03-26T11:00:43.420Z,8.93
2019-03-26T11:03:13.327Z,17.60
2019-03-26T11:05:42.816Z,9.75
2019-03-26T11:08:11.914Z,8.80
2019-03-26T11:10:41.021Z,17.00
2019-03-26T11:13:10.152Z,13.00
2019-03-26T11:15:42.701Z,10.15
2019-03-26T11:18:12.410Z,9.20
2019-03-26T11:20:41.901Z,15.85
2019-03-26T11:23:15.316Z,10.90
2019-03-26T11:25:44.425Z,11.22
2019-03-26T11:28:13.543Z,14.55
2019-03-26T11:30:42.650Z,17.37
2019-03-26T11:33:14.472Z,14.05
2019-03-26T11:35:43.588Z,10.63
2019-03-26T11:38:14.525Z,13.22
2019-03-26T11:40:46.705Z,12.88
2019-03-26T11:43:19.071Z,13.60
2019-03-26T11:45:51.520Z,15.20
2019-03-26T11:48:20.718Z,12.93
2019-03-26T11:50:50.506Z,10.03
2019-03-26T11:53:20.435Z,14.18
2019-03-26T11:55:49.523Z,14.40
2019-03-26T11:58:30.256Z,14.83
2019-03-26T12:00:52.427Z,12.93
2019-03-26T12:03:24.608Z,9.40
2019-03-26T12:05:57.485Z,8.95
2019-03-26T12:08:29.753Z,12.20
2019-03-26T12:10:58.878Z,11.57
2019-03-26T12:13:34.012Z,13.50
2019-03-26T12:16:03.408Z,12.35
2019-03-26T12:18:32.902Z,16.67
2019-03-26T12:21:05.672Z,10.93
2019-03-26T12:23:34.792Z,14.10
2019-03-26T12:26:10.915Z,15.13
2019-03-26T12:28:41.330Z,11.18
2019-03-26T12:31:10.445Z,8.28
2019-03-26T12:33:39.578Z,7.95
2019-03-26T12:36:08.678Z,13.03
2019-03-26T12:38:46.891Z,9.63
2019-03-26T12:41:19.106Z,10.45
2019-03-26T12:43:50.945Z,8.80
2019-03-26T12:46:20.410Z,7.47
2019-03-26T12:48:49.932Z,16.62
2019-03-26T12:51:19.642Z,4.25
2019-03-26T12:53:49.139Z,5.95
2019-03-26T12:56:19.881Z,10.20
2019-03-26T12:58:48.991Z,9.78
2019-03-26T13:01:21.146Z,16.50
2019-03-26T13:03:51.406Z,5.75
2019-03-26T13:06:21.079Z,9.85
2019-03-26T13:08:50.174Z,13.38
2019-03-26T13:11:19.266Z,6.15
2019-03-26T13:13:48.420Z,8.58
2019-03-26T13:16:17.524Z,11.93
2019-03-26T13:18:46.689Z,8.05
2019-03-26T13:21:16.441Z,7.83
2019-03-26T13:23:49.034Z,11.30
2019-03-26T13:26:21.778Z,6.85
2019-03-26T13:28:51.238Z,10.63
2019-03-26T13:31:20.364Z,8.28
2019-03-26T13:33:49.591Z,7.75
2019-03-26T13:36:18.696Z,7.78
2019-03-26T13:38:48.150Z,8.18
2019-03-26T13:41:20.454Z,6.58
2019-03-26T13:43:49.587Z,5.45
2019-03-26T13:46:19.414Z,5.08
2019-03-26T13:48:48.495Z,8.45
2019-03-26T13:51:17.607Z,12.10
2019-03-26T13:53:47.083Z,7.20
2019-03-26T13:56:16.493Z,13.32
2019-03-26T13:58:45.906Z,11.78
2019-03-26T14:01:15.008Z,7.55
2019-03-26T14:03:44.107Z,10.60
2019-03-26T14:06:13.617Z,9.93
2019-03-26T14:08:43.038Z,11.05
2019-03-26T14:11:13.058Z,9.08
2019-03-26T14:13:42.141Z,6.87
2019-03-26T14:16:14.752Z,12.35
2019-03-26T14:18:49.012Z,8.35
2019-03-26T14:21:18.118Z,8.00
2019-03-26T14:23:50.938Z,8.55
2019-03-26T14:26:22.753Z,10.67
2019-03-26T14:28:52.288Z,10.53
2019-03-26T14:31:23.649Z,7.95
2019-03-26T14:33:55.751Z,6.05
2019-03-26T14:36:30.378Z,7.87
2019-03-26T14:39:04.523Z,10.78
2019-03-26T14:41:33.637Z,9.20
2019-03-26T14:44:11.574Z,12.33
2019-03-26T14:46:41.763Z,7.60
2019-03-26T14:49:14.736Z,8.93
2019-03-26T14:51:43.835Z,9.30
2019-03-26T14:54:13.337Z,9.98
2019-03-26T14:56:45.876Z,9.65
2019-03-26T14:59:18.397Z,11.33
2019-03-26T15:01:48.246Z,11.45
2019-03-26T15:04:17.501Z,6.72
2019-03-26T15:06:46.601Z,7.25
2019-03-26T15:09:17.370Z,10.70
2019-03-26T15:11:46.852Z,7.90
2019-03-26T15:14:16.243Z,11.45
2019-03-26T15:16:45.362Z,9.08
2019-03-26T15:19:14.488Z,7.62
2019-03-26T15:21:43.644Z,8.05
2019-03-26T15:24:12.735Z,7.17
2019-03-26T15:26:41.844Z,10.32
2019-03-26T15:29:12.234Z,6.67
2019-03-26T15:31:41.637Z,8.78
2019-03-26T15:34:12.700Z,7.70
2019-03-26T15:36:41.819Z,8.55
2019-03-26T15:39:10.929Z,7.00
2019-03-26T15:41:40.031Z,7.72
2019-03-26T15:44:09.119Z,8.23
2019-03-26T15:46:38.239Z,4.40
2019-03-26T15:49:07.993Z,7.20
2019-03-26T15:51:37.433Z,5.12
2019-03-26T15:54:06.569Z,11.28
2019-03-26T15:56:35.685Z,5.20
2019-03-26T15:59:04.766Z,3.05
2019-03-26T16:01:37.286Z,5.40
2019-03-26T16:04:06.683Z,11.93
2019-03-26T16:06:36.173Z,7.95
2019-03-26T16:09:09.462Z,7.37
2019-03-26T16:11:38.616Z,4.95
2019-03-26T16:14:08.045Z,11.55
2019-03-26T16:16:37.769Z,9.05
2019-03-26T16:19:12.365Z,6.03
2019-03-26T16:21:41.869Z,7.35
2019-03-26T16:24:13.411Z,8.35
2019-03-26T16:26:42.871Z,3.72
2019-03-26T16:29:11.965Z,10.15
2019-03-26T16:31:41.339Z,6.17
2019-03-26T16:34:10.639Z,5.78
2019-03-26T16:36:58.494Z,8.50
2019-03-26T16:39:16.254Z,8.75
2019-03-26T16:41:49.179Z,3.22
2019-03-26T16:44:19.451Z,8.20
2019-03-26T16:46:48.574Z,8.25
2019-03-26T16:49:21.260Z,6.83
2019-03-26T16:51:50.387Z,6.53
2019-03-26T16:54:20.750Z,9.08
2019-03-26T16:56:49.882Z,6.95
2019-03-26T16:59:19.577Z,6.58
2019-03-26T17:01:49.205Z,6.53
2019-03-26T17:04:18.484Z,7.70
2019-03-26T17:06:50.886Z,6.78
2019-03-26T17:09:20.068Z,8.83
2019-03-26T17:12:02.201Z,6.83
2019-03-26T17:14:20.692Z,7.85
2019-03-26T17:16:49.923Z,6.05
2019-03-26T17:19:19.474Z,10.70
2019-03-26T17:21:49.224Z,6.30
2019-03-26T17:24:21.798Z,8.30
2019-03-26T17:26:51.773Z,10.65
2019-03-26T17:29:20.992Z,5.80
2019-03-26T17:31:50.457Z,5.95
2019-03-26T17:34:19.612Z,5.53
2019-03-26T17:36:48.824Z,7.60
2019-03-26T17:39:21.458Z,9.78
2019-03-26T17:41:50.682Z,7.10
2019-03-26T17:44:19.863Z,7.67
2019-03-26T17:46:48.989Z,7.60
2019-03-26T17:49:18.572Z,11.28
2019-03-26T17:51:47.804Z,12.18
2019-03-26T17:54:17.399Z,8.75
2019-03-26T17:56:47.539Z,6.78
2019-03-26T17:59:16.847Z,10.85
2019-03-26T18:01:48.713Z,12.30
2019-03-26T18:04:18.534Z,8.63
2019-03-26T18:06:51.234Z,10.68
2019-03-26T18:09:23.982Z,11.70
2019-03-26T18:11:53.255Z,11.67
2019-03-26T18:14:22.519Z,17.55
2019-03-26T18:16:51.768Z,14.80
2019-03-26T18:19:21.259Z,14.63
2019-03-26T18:21:51.998Z,11.45
2019-03-26T18:24:23.389Z,17.35
2019-03-26T18:26:52.761Z,24.70
2019-03-26T18:29:21.978Z,15.05
2019-03-26T18:31:51.358Z,15.08
2019-03-26T18:34:21.363Z,13.80
2019-03-26T18:36:50.953Z,14.10
2019-03-26T18:39:20.625Z,17.12
2019-03-26T18:41:49.847Z,9.98
2019-03-26T18:44:19.124Z,8.05
2019-03-26T18:46:51.404Z,9.75
2019-03-26T18:49:20.888Z,14.13
2019-03-26T18:51:50.091Z,15.43
2019-03-26T18:54:19.268Z,18.20
2019-03-26T18:56:49.086Z,15.65
2019-03-26T18:59:18.191Z,12.95
2019-03-26T19:01:47.334Z,3.80
2019-03-26T19:04:16.466Z,6.50
2019-03-26T19:06:45.617Z,9.10
2019-03-26T19:09:15.031Z,6.60
2019-03-26T19:11:44.485Z,5.92
2019-03-26T19:14:13.656Z,3.62
2019-03-26T19:16:43.191Z,5.78
2019-03-26T19:19:12.607Z,6.55
2019-03-26T19:21:41.758Z,6.25
2019-03-26T19:24:12.641Z,4.92
2019-03-26T19:26:41.812Z,6.90
2019-03-26T19:29:12.257Z,4.83
2019-03-26T19:31:42.446Z,6.35
2019-03-26T19:34:11.961Z,5.05
2019-03-26T19:36:43.503Z,5.58
2019-03-26T19:39:14.289Z,3.80
2019-03-26T19:41:46.479Z,5.00
2019-03-26T19:44:18.003Z,6.75
2019-03-26T19:46:47.522Z,5.08
2019-03-26T19:49:17.119Z,7.53
2019-03-26T19:51:50.253Z,6.90
2019-03-26T19:54:19.499Z,6.60
2019-03-26T19:56:49.373Z,6.15
2019-03-26T19:59:20.580Z,6.97
2019-03-26T20:01:50.243Z,6.50
2019-03-26T20:04:19.392Z,4.70
2019-03-26T20:06:51.985Z,7.47
2019-03-26T20:09:21.462Z,13.72
2019-03-26T20:11:50.744Z,9.50
2019-03-26T20:14:20.114Z,11.68
2019-03-26T20:16:49.941Z,10.58
2019-03-26T20:19:22.364Z,10.63
2019-03-26T20:21:51.521Z,128.30
2019-03-26T20:24:24.986Z,180.12
2019-03-26T20:26:54.767Z,72.55
2019-03-26T20:29:27.460Z,13.48
2019-03-26T20:31:57.617Z,28.23
2019-03-26T20:34:26.863Z,11.40
2019-03-26T20:36:58.070Z,10.68
2019-03-26T20:39:27.698Z,11.25
2019-03-26T20:41:58.220Z,12.50
2019-03-26T20:44:27.407Z,14.70
2019-03-26T20:47:02.260Z,20.55
2019-03-26T20:49:31.451Z,16.25
2019-03-26T20:52:00.648Z,15.30
2019-03-26T20:54:30.950Z,13.45
2019-03-26T20:57:00.126Z,12.68
2019-03-26T20:59:29.488Z,14.13
2019-03-26T21:02:02.298Z,11.43
2019-03-26T21:04:31.787Z,11.37
2019-03-26T21:07:01.666Z,16.62
2019-03-26T21:09:30.844Z,15.65
2019-03-26T21:12:00.632Z,16.73
2019-03-26T21:14:29.807Z,12.68
2019-03-26T21:16:59.777Z,14.93
2019-03-26T21:19:29.004Z,17.77
2019-03-26T21:21:58.819Z,20.82
2019-03-26T21:24:28.358Z,15.50
2019-03-26T21:26:57.829Z,15.88
2019-03-26T21:29:27.747Z,17.23
2019-03-26T21:31:57.501Z,16.67
2019-03-26T21:34:30.892Z,20.65
2019-03-26T21:37:00.750Z,22.37
2019-03-26T21:39:29.962Z,24.57
2019-03-26T21:41:59.883Z,18.40
2019-03-26T21:44:29.389Z,16.48
2019-03-26T21:46:58.575Z,25.27
2019-03-26T21:49:27.810Z,17.12
2019-03-26T21:51:57.265Z,14.20
2019-03-26T21:54:26.803Z,16.62
2019-03-26T21:56:56.675Z,15.03
2019-03-26T21:59:28.442Z,13.60
2019-03-26T22:01:57.711Z,16.73
2019-03-26T22:04:26.908Z,13.95
2019-03-26T22:06:59.956Z,14.00
2019-03-26T22:09:29.490Z,17.27
2019-03-26T22:12:02.156Z,13.72
2019-03-26T22:14:31.551Z,13.50
2019-03-26T22:17:01.361Z,20.68
2019-03-26T22:19:30.976Z,14.18
2019-03-26T22:22:00.524Z,15.98
2019-03-26T22:24:30.114Z,15.72
2019-03-26T22:26:59.264Z,21.25
2019-03-26T22:29:28.468Z,20.37
2019-03-26T22:31:57.667Z,14.15
2019-03-26T22:34:26.822Z,11.65
2019-03-26T22:36:56.243Z,14.13
2019-03-26T22:39:26.986Z,19.85
2019-03-26T22:41:59.770Z,20.92
2019-03-26T22:44:31.656Z,16.80
2019-03-26T22:47:00.113Z,14.50
2019-03-26T22:49:29.559Z,11.18
2019-03-26T22:51:59.361Z,14.53
2019-03-26T22:54:28.560Z,18.98
2019-03-26T22:56:57.986Z,18.00
2019-03-26T22:59:27.437Z,16.15
2019-03-26T23:01:56.682Z,15.90
2019-03-26T23:04:29.496Z,18.87
2019-03-26T23:06:58.764Z,17.60
2019-03-26T23:09:28.541Z,11.15
2019-03-26T23:11:58.023Z,12.13
2019-03-26T23:14:27.764Z,11.78
2019-03-26T23:16:56.940Z,13.72
2019-03-26T23:19:26.079Z,12.15
2019-03-26T23:21:59.081Z,14.35
2019-03-26T23:24:28.572Z,12.50
2019-03-26T23:26:57.765Z,20.08
2019-03-26T23:29:27.194Z,17.55
2019-03-26T23:32:00.182Z,13.80
2019-03-26T23:34:30.028Z,20.97
2019-03-26T23:37:02.520Z,20.32
2019-03-26T23:39:31.663Z,16.95
2019-03-26T23:42:01.041Z,21.85
2019-03-26T23:44:33.593Z,14.87
2019-03-26T23:47:04.985Z,12.35
2019-03-26T23:49:34.134Z,16.87
2019-03-26T23:52:03.618Z,17.32
2019-03-26T23:54:32.789Z,16.57
2019-03-26T23:57:02.207Z,22.73
2019-03-26T23:59:32.849Z,15.88
